Sam Dempsey

Chefscout - Minnesota United FC
25 Nov 2027
Donnerstag
Verarbeitung

Persönlichkeit

Anpassungsfähigkeit (9) Ehrgeiz (16) Kontroverse (20) Loyalität (4) Druck (11) Professionalität (15) Fairness (14) Temperament (10)

Profil

Trainerstil Demokratisch
Lizenz Kontinentale Pro
Entschlossenheit 7
Menschenführung 12
Motivation 4
Disziplin 9
Arbeitszufriedenheit
39%
Ermüdung
0%
Rolle Chefscout
Gehalt 15.6K p/W
Vertrag 14.03.2028

Leistung

Verhalten Gut
Trainingseffektivität
18%
Spielerentwicklung
45%
Verletzungsprävention
60%
Taktische Umsetzung
55%

Letzte Ereignisse

Nahm an einer Scouting-Besprechung teil jetzt
Nahm an einer Scouting-Besprechung teil jetzt
Nahm an einer Scouting-Besprechung teil jetzt
Nahm an einer Scouting-Besprechung teil 7T her
Nahm an einer Scouting-Besprechung teil 7T her
Nahm an einer Scouting-Besprechung teil 7T her
Empfahl ein Transferziel 7T her
Spieler begutachtet 7T her

Aktuell beobachtet

181
Spieler Verein Status Fähigkeit Vertrauen Beobachtet Zuletzt beobachtet Letzte Stimme
Ernie Weaver AFC Wimbledon Aktiv 113 / 121 40% 5 17.11.2027 -
Hervin Goyes Deportivo Pasto Aktiv 97 / 127 40% 5 17.11.2027 -
Lucas Camejo River Plate Aktiv 94 / 103 40% 3 17.11.2027 -
Olaniyi Saheed Kwara United Aktiv 89 / 92 40% 7 15.11.2027 -
Ronan Kpakio Cardiff City Aktiv 117 / 138 40% 4 15.11.2027 -
Gift Udoh Ikorodu City Aktiv 90 / 80 40% 4 15.11.2027 -
David Damboama El-Kanemi Warriors Aktiv 82 / 101 40% 7 14.11.2027 -
Tiago Parente Benfica Aktiv 111 / 116 40% 2 14.11.2027 -
Luis Otávio Colorado Rapids Aktiv 103 / 132 40% 3 13.11.2027 -
Giovanni Leoni Bradford City Aktiv 132 / 153 40% 3 13.11.2027 -
Mads Bomholt Stabaek Aktiv 107 / 100 40% 3 12.11.2027 -
Fillip Jenssen Riise Stabaek Aktiv 97 / 107 40% 2 12.11.2027 -
Joel McGregor Swindon Town Aktiv 91 / 112 40% 1 12.11.2027 -
Emmanuel Akpan Bendel Insurance Aktiv 91 / 104 40% 2 11.11.2027 -
Christos Mouzakitis Hull City Aktiv 142 / 159 40% 4 11.11.2027 -
Somtochuwku Ezenabo Kwara United Aktiv 87 / 102 40% 2 11.11.2027 -
Godwin Oham Warri Wolves Aktiv 94 / 110 40% 5 10.11.2027 -
Tiago Gordillo San Miguel Aktiv 88 / 99 40% 3 08.11.2027 -
Onuorah Onyedika Kun Khalifat Aktiv 89 / 94 40% 2 08.11.2027 -
Trey Nyoni Rotherham United Aktiv 128 / 154 40% 1 04.11.2027 -
Kieran Morgan Queens Park Rangers Aktiv 113 / 120 40% 1 04.11.2027 -
Hosea Michael Remo Stars Aktiv 87 / 112 40% 4 03.11.2027 -
Ignacio Fernández Boston River Aktiv 96 / 92 40% 3 01.11.2027 -
Honest Ahanor Atalanta Aktiv 127 / 133 40% 3 01.11.2027 -
Julián Bazán Philadelphia Union Aktiv 110 / 130 40% 1 01.11.2027 -
Joel Ezra Enyimba Verhandlung 85 / 91 40% 8 21.10.2027 -
Esquerdinha Shrewsbury Town Aktiv 120 / 134 40% 3 21.10.2027 -
Joe Johnson Barnet Aktiv 105 / 107 40% 2 21.10.2027 -
Juan Camilo Córdoba Deportivo Pereira Aktiv 91 / 105 40% 2 19.10.2027 -
Harrison Armstrong Everton Aktiv 128 / 123 40% 2 19.10.2027 -
Mauro Carrizo Atlético Tucumán Aktiv 95 / 104 40% 2 19.10.2027 -
José Correa Deportivo Tachira Aktiv 94 / 110 40% 1 15.10.2027 -
David Asayure Lokomotivi Aktiv 79 / 98 40% 2 14.10.2027 -
Ricky Atletico Venezuela Aktiv 88 / 95 40% 3 12.10.2027 -
Caleb Yirenkyi Coventry City Aktiv 147 / 138 40% 4 11.10.2027 -
Matthew Litherland Rotherham United Aktiv 118 / 125 40% 1 11.10.2027 -
Malick Yalcouyé Brighton Aktiv 127 / 132 40% 2 10.10.2027 -
Yunus Emre Konak Brentford Aktiv 134 / 146 40% 1 09.10.2027 -
Chris Rigg Sunderland Aktiv 142 / 153 40% 3 07.10.2027 -
Tyson Pearce St. Louis CITY SC Aktiv 94 / 106 40% 1 07.10.2027 -
Matías Canedo Rampla Juniors Aktiv 87 / 74 40% 1 18.09.2027 -
Ayden Heaven Luton Town Aktiv 148 / 134 40% 4 16.09.2027 -
Issa Yusuf Shooting Stars Aktiv 90 / 76 40% 3 12.09.2027 -
Jens Hjertø-Dahl Hull City Aktiv 132 / 130 40% 1 09.09.2027 -
Jofrank Istifanus Nasarawa United Aktiv 79 / 86 40% 1 08.09.2027 -
Veljko Milosavljević Aston Villa Aktiv 132 / 136 40% 1 06.09.2027 -
Taher Mohamed Real Salt Lake Aktiv 119 / 119 67% 1 26.07.2027 Befürworten
Finley McAllister Grimsby Town Aktiv 94 / 109 40% 2 16.07.2027 -
Marquinhos Spartak Moscow Verhandlung 128 / 128 66% 1 08.07.2027 -
Razvan Mitrita San Diego Football Club Verhandlung 118 / 120 66% 1 08.07.2027 -
Jofre Torrents Ajax Aktiv 125 / 133 40% 5 07.07.2027 -
Matías Gómez Granada Aktiv 115 / 124 40% 2 07.07.2027 -
Kazunari Kita Real Sociedad Aktiv 93 / 119 40% 3 06.07.2027 -
Sascha Britschgi Padova Aktiv 113 / 134 40% 2 06.07.2027 -
Felix Afful Liberty Professionals Aktiv 80 / 77 40% 3 05.07.2027 -
Gonçalo Oliveira Benfica Aktiv 116 / 131 40% 1 05.07.2027 -
Davide Bartesaghi AC Milan Aktiv 130 / 156 40% 1 05.07.2027 -
Riley Owen Trento Aktiv 111 / 126 40% 1 04.07.2027 -
Edwin Asamoah Berekum Chelsea Aktiv 91 / 97 40% 1 04.07.2027 -
Zane Albarus Cambridge United Aktiv 92 / 120 40% 6 30.06.2027 -
Dylan Lawlor Cardiff City Aktiv 120 / 135 40% 2 30.06.2027 -
David Atiemo Liberty Professionals Aktiv 72 / 71 40% 1 30.06.2027 -
Rhys Chadwick Leyton Orient Aktiv 101 / 109 40% 2 28.06.2027 -
Keagan Tau Ajax Cape Town Aktiv 105 / 104 40% 2 27.06.2027 -
Joseph Nuhu Hasaacas Aktiv 76 / 97 40% 1 27.06.2027 -
Rivaldo Grobler Free State Stars Aktiv 89 / 101 40% 2 26.06.2027 -
Ibrahim Sabiu Bendel Insurance Aktiv 88 / 85 40% 2 24.06.2027 -
Keagan Phiri Platinum Stars Aktiv 99 / 105 40% 2 24.06.2027 -
Mpho Khethang AS Police Aktiv 88 / 96 40% 1 22.06.2027 -
Ezra Mayers West Ham United Aktiv 126 / 133 40% 2 21.06.2027 -
Christ Inao Oulaï Fiorentina Aktiv 138 / 144 40% 3 19.06.2027 -
Marvelous Freedom Ikorodu City Aktiv 82 / 108 40% 1 18.06.2027 -
Percy Jali Free State Stars Aktiv 106 / 117 40% 4 14.06.2027 -
Josh Smith Accrington Stanley Aktiv 87 / 77 40% 2 14.06.2027 -
Daniel Dennis Ikorodu City Aktiv 88 / 106 40% 2 13.06.2027 -
Ethan Williams Peterborough United Aktiv 119 / 113 40% 1 20.04.2027 -
Kutlwano Letlhaku Ajax Cape Town Aktiv 124 / 140 40% 1 20.04.2027 -
Bradley Phiri LNZ Verhandlung 112 / 112 66% 1 01.03.2027 -
Pablo Solari Galatasaray Verhandlung 128 / 128 68% 1 14.02.2027 -
Khama Dolly Utrecht Verhandlung 123 / 124 67% 1 14.02.2027 -
Ilyas Ansah Hull City Aktiv 121 / 141 40% 2 10.02.2027 -
Tom Fellows Southampton Aktiv 128 / 143 40% 2 10.02.2027 -
Gonzalo Fulham Aktiv 144 / 149 40% 2 10.02.2027 -
Bojan Radulović Huddersfield Town Aktiv 118 / 111 40% 1 10.02.2027 -
Mohamed-Ali Cho Hull City Aktiv 131 / 144 40% 1 10.02.2027 -
Isaiah Jones Luton Town Aktiv 118 / 135 40% 2 08.02.2027 -
Finn Azaz Southampton Aktiv 135 / 128 40% 1 08.02.2027 -
Georginio Rutter Brighton Aktiv 148 / 129 40% 3 06.02.2027 -
Welington Southampton Aktiv 133 / 135 40% 2 06.02.2027 -
Marcelo Allende Mamelodi Sundowns Aktiv 131 / 146 40% 5 05.02.2027 -
Ali Ahmed Norwich City Aktiv 119 / 124 40% 1 05.02.2027 -
Marezi Portsmouth Aktiv 120 / 133 40% 1 04.02.2027 -
Dom Ballard Leyton Orient Aktiv 113 / 107 40% 1 04.02.2027 -
Malik Mothersille Stockport County Aktiv 119 / 130 40% 1 04.02.2027 -
Jack McGlynn Stoke City Aktiv 134 / 149 40% 1 03.02.2027 -
Tyrese Campbell Sheffield United Aktiv 123 / 107 40% 2 01.02.2027 -
Million Manhoef Stoke City Aktiv 130 / 140 40% 1 31.01.2027 -
Kasey McAteer Ipswich Town Aktiv 120 / 113 40% 1 31.01.2027 -
Joe Gelhardt Hull City Aktiv 133 / 148 40% 2 30.01.2027 -
Andre Brooks Sheffield United Aktiv 124 / 129 40% 1 29.01.2027 -
Koki Saito Queens Park Rangers Aktiv 135 / 143 40% 1 28.01.2027 -
Zeki Amdouni Burnley Aktiv 135 / 135 40% 2 28.01.2027 -
Kwame Poku Queens Park Rangers Aktiv 122 / 104 40% 1 28.01.2027 -
Themba Ngcobo SuperSport United Aktiv 117 / 115 40% 1 27.01.2027 Mehr Infos nötig
Cemran Dansin Orlando Pirates Aktiv 109 / 98 40% 1 26.01.2027 -
Othmane Maamma Watford Aktiv 130 / 136 40% 2 25.01.2027 -
Tommy Conway Middlesbrough Aktiv 123 / 147 40% 1 24.01.2027 -
Brayan León Mamelodi Sundowns Aktiv 111 / 98 40% 3 23.01.2027 -
Milan van Ewijk Mansfield Town Aktiv 140 / 118 40% 1 23.01.2027 -
Sam Bell Bristol City Aktiv 128 / 135 40% 1 23.01.2027 -
Nadir Zortea Bologna Aktiv 139 / 140 40% 1 20.01.2027 -
Bongani Mothiba SuperSport United Aktiv 87 / 73 40% 1 18.01.2027 -
Yaw Mensah Hasaacas Aktiv 83 / 110 40% 1 18.01.2027 -
João Gomes Aston Villa Aktiv 134 / 146 40% 3 15.01.2027 -
Danil Glebov Dinamo Moscow Aktiv 136 / 136 40% 2 15.01.2027 -
Josh King Chelsea Aktiv 131 / 163 40% 3 14.01.2027 -
Dayann Methalie Aston Villa Aktiv 134 / 116 40% 1 14.01.2027 -
Romano Schmid Frosinone Aktiv 138 / 142 40% 2 12.01.2027 -
Christian Krasnodar Aktiv 141 / 114 40% 4 12.01.2027 -
Kenan Dervišagić Floriana Aktiv 100 / 102 40% 2 12.01.2027 -
Sibusiso Tshabalala Polokwane City Aktiv 90 / 107 40% 2 12.01.2027 -
Leandro Godoy CSKA Sofia Aktiv 124 / 138 40% 1 12.01.2027 -
Luciano Gondou CSKA Moscow Aktiv 122 / 145 40% 4 11.01.2027 -
Sergey Pinyaev Lokomotiv Moscow Aktiv 129 / 147 40% 2 11.01.2027 -
Yaroslav Gladyshev Dinamo Moscow Aktiv 116 / 139 40% 1 10.01.2027 -
Sagir Arce Paralimni Aktiv 106 / 88 40% 1 10.01.2027 -
Trai Hume Sunderland Aktiv 129 / 137 40% 1 09.01.2027 -
Reda Khadra Qarabag Aktiv 129 / 145 40% 5 07.01.2027 -
Ronwen Phiri Platinum Stars Aktiv 101 / 92 40% 1 04.01.2027 -
Conrad Wallem Austria Wien Aktiv 128 / 139 40% 8 03.01.2027 -
Alessio Zerbin Frosinone Aktiv 129 / 140 40% 1 03.01.2027 -
Giacomo Raspadori Atalanta Aktiv 143 / 150 40% 1 01.01.2027 -
Rayane Bounida Ajax Aktiv 135 / 125 40% 1 30.12.2026 -
Matías Fernández-Pardo Newcastle United Aktiv 142 / 141 40% 1 30.12.2026 -
Mattéo Tramoni Pisa Aktiv 127 / 143 40% 1 29.12.2026 -
Tiago Palacios Estudiantes Aktiv 129 / 130 40% 2 28.12.2026 -
Tyreece Simpson Maritzburg United Aktiv 81 / 100 40% 2 28.12.2026 -
Nathan Ordaz Metalist Aktiv 112 / 115 40% 1 28.12.2026 -
Valentín Barco Chelsea Aktiv 143 / 148 40% 1 27.12.2026 -
Lewis Ferguson Bologna Aktiv 146 / 148 40% 1 27.12.2026 -
Maxim De Cuyper Brighton Aktiv 139 / 159 40% 4 25.12.2026 -
Everton Bala Levski Aktiv 120 / 132 40% 7 25.12.2026 -
Mohammed Yahaya Great Olympics Aktiv 77 / 94 40% 1 25.12.2026 -
Volodymyr Brazhko Dynamo Kyiv Aktiv 123 / 144 40% 2 23.12.2026 -
Ammar Ramadan DAC Dunajska Streda Aktiv 122 / 134 40% 3 22.12.2026 -
Femi Seriki Sheffield United Aktiv 135 / 135 40% 1 22.12.2026 -
Kwame Opoku Asante Kotoko Aktiv 104 / 78 40% 1 22.12.2026 -
Riqui Puig LA Galaxy Aktiv 134 / 147 40% 3 19.12.2026 -
Petar Stanić Ludogorets Aktiv 131 / 118 40% 5 18.12.2026 -
Rubens Dinamo Moscow Aktiv 121 / 110 40% 2 16.12.2026 -
Ola Brynhildsen Bodo/Glimt Aktiv 127 / 121 40% 2 14.12.2026 -
Etiosa Ighodaro Kaizer Chiefs Aktiv 115 / 109 40% 2 11.12.2026 -
Alex Luna Instituto Aktiv 129 / 115 40% 1 11.12.2026 -
Jere Vrcić Birkirkara Aktiv 96 / 103 40% 1 11.12.2026 -
Isaac Essien WAFA Aktiv 95 / 83 40% 2 10.12.2026 -
Sidiki Chérif Coventry City Aktiv 131 / 128 40% 1 10.12.2026 -
Mandla Mahlangu Ajax Cape Town Aktiv 110 / 95 40% 1 09.12.2026 -
Milán Tóth Vasas Aktiv 104 / 123 40% 1 09.12.2026 -
Dean Erasmus Platinum Stars Aktiv 92 / 75 40% 1 07.12.2026 -
Santiago Rodríguez Columbus Crew Aktiv 132 / 119 40% 4 05.12.2026 -
Endrick Real Madrid Aktiv 146 / 160 40% 1 05.12.2026 -
Iván Angulo Orlando City Aktiv 133 / 137 40% 1 30.11.2026 -
Santiago González Tigre Aktiv 130 / 110 40% 1 28.11.2026 -
Aarón Molinas Defensa y Justicia Aktiv 119 / 130 40% 1 26.11.2026 -
Telasco Segovia Inter Miami CF Aktiv 136 / 136 40% 3 22.11.2026 -
Bryan Ramírez FC Cincinnati Aktiv 124 / 126 40% 2 21.11.2026 -
Bénie Traoré New York City Aktiv 123 / 115 40% 6 18.11.2026 -
Griffin Yow New England Revolution Aktiv 128 / 123 40% 1 13.11.2026 -
Antonio Galeano Remo Stars Aktiv 122 / 131 40% 1 12.11.2026 -
Esequiel Barco Spartak Moscow Aktiv 129 / 147 40% 1 07.11.2026 -
Daniel Karlsbakk Sarpsborg 08 Aktiv 122 / 126 40% 1 05.11.2026 Mehr Infos nötig
Cheikh Sabaly Vancouver Whitecaps Aktiv 128 / 123 40% 1 28.10.2026 -
Juan Manuel Sanabria Real Salt Lake Aktiv 125 / 128 40% 1 26.10.2026 -
Djordje Mihailović Toronto FC Aktiv 130 / 118 40% 1 22.10.2026 -
Paxten Aaronson Colorado Rapids Aktiv 138 / 126 40% 2 13.10.2026 -
David Da Costa Portland Timbers Aktiv 127 / 125 40% 1 13.10.2026 -
Oleksandr Nazarenko Polissia Aktiv 123 / 108 40% 1 05.10.2026 Mehr Infos nötig
Maldini Kacurri Grimsby Town Aktiv 86 / 79 40% 1 11.09.2026 -
Luca Bombino Stoke City Aktiv 98 / 101 40% 1 10.09.2026 -
Emmanuel Mathias Ikorodu City Aktiv 95 / 116 40% 1 09.09.2026 -
Martín Ojeda Orlando City Aktiv 126 / 147 40% 1 01.08.2026 -